Rockland, ME (04841)

11:12 PM EST on February 22, 2017 (GMT -0500)
Upper Park Street | | Change Station
Active Advisory: Special Statement

Elev 79 ft 44.10 °N, 69.13 °W | Updated 2 seconds ago

Clear
Clear
34.0 °F
Feels Like 34 °F
N
2.1
Wind Variable Wind from WSW
Gusts 2.1 mph

Today
High -- | Low -- °F
--% Chance of Precip.
Yesterday
High -- | Low -- °F
Precip. -- in
Pressure 29.91 in
Visibility 10.0 miles
Clouds Clear
Windchill 34 °F
Dew Point 32 °F
Humidity 88%
Rainfall 0.00 in
Snow Depth Not available.
6:24 AM 5:15 PM
Waning Crescent, 13% visible
METAR KRKD 230356Z AUTO 27003KT 10SM CLR M03/M04 A2990 RMK AO2 SLP126 T10331039 FZRANO
Pressure 29.91 in
Visibility 10.0 miles
Clouds Clear
Windchill 34 °F
Dew Point 32 °F
Humidity 88%
Rainfall 0.00 in
Snow Depth Not available.
6:24 AM 5:15 PM
Waning Crescent, 13% visible
METAR KRKD 230356Z AUTO 27003KT 10SM CLR M03/M04 A2990 RMK AO2 SLP126 T10331039 FZRANO

Get Your Daily Forecast Email!

Thanks for signing up!

Be on the lookout for a verification email in your inbox.

You'll start receiving the daily forecast at 8 AM.

×

10-Day Weather Forecast

Almanac

Astronomy

Feb. 22, 2017 Rise Set
Actual Time
Civil Twilight
Nautical Twilight
Astronomical Twilight
Moon
Length of Visible Light
Length of Day
Tomorrow will be .
, % of the Moon is Illuminated

Today's Extremes

State Highs State Lows

Community

WunderPhotos

Upload Photos

1,962,540 photos uploaded!

WunderBlog® & News

Nearby

Air Quality

  Air Quality AQ Index Pollutant
Not available.

Snow Depth

Station Depth Elevation

Earthquake Activity

City Distance Mag. Time & Date
Minimum magnitude displayed is 2.5.

Coastal Water Temperatures

Place Temperature

Stations

Nearby Weather Stations

Station Location Temp. Windchill Dew Point Humidity Wind Precip. Elev Updated Type
                   

Watches & Warnings

Special Statement
Issued: 7:21 PM EST Feb. 22, 2017 – National Weather Service

... Icy spots on area roadways tonight...

A significant amount of melting has resulted in wet pavement
across much of the area. As temperatures fall rapidly this
evening... some areas of icing will develop... particularly on back
roads. Motorists are encouraged to use caution and be prepared
for areas of slick travel.


Arnott


721 PM EST Wed Feb 22 2017

... Icy spots on area roadways tonight...

A significant amount of melting has resulted in wet pavement
across much of the area. As temperatures fall rapidly this
evening... some areas of icing will develop... particularly on back
roads. Motorists are encouraged to use caution and be prepared
for areas of slick travel.


Arnott